createdAt,value
2023-03-05T00:00:47.686Z,-0.12
2023-03-05T00:06:06.376Z,-0.30
2023-03-05T00:11:12.736Z,-0.04
2023-03-05T00:16:20.231Z,0.25
2023-03-05T00:21:27.863Z,-0.27
2023-03-05T00:26:34.663Z,-0.14
2023-03-05T00:31:39.678Z,0.46
2023-03-05T00:36:47.531Z,0.14
2023-03-05T00:41:52.296Z,-0.22
2023-03-05T00:46:56.719Z,0.30
2023-03-05T00:52:02.554Z,-0.03
2023-03-05T00:57:07.223Z,0.88
2023-03-05T01:02:11.577Z,0.49
2023-03-05T01:07:17.357Z,0.67
2023-03-05T01:12:21.652Z,1.69
2023-03-05T01:17:25.948Z,2.13
2023-03-05T01:22:31.956Z,2.03
2023-03-05T01:27:36.559Z,2.68
2023-03-05T01:32:41.260Z,2.79
2023-03-05T01:37:47.131Z,3.03
2023-03-05T01:42:58.574Z,3.00
2023-03-05T01:48:03.027Z,3.05
2023-03-05T01:53:09.553Z,3.10
2023-03-05T01:58:15.513Z,3.22
2023-03-05T02:03:21.232Z,2.13
2023-03-05T02:08:26.929Z,2.83
2023-03-05T02:13:34.273Z,2.77
2023-03-05T02:18:39.077Z,2.58
2023-03-05T02:23:45.336Z,2.13
2023-03-05T02:28:54.603Z,1.93
2023-03-05T02:33:59.023Z,1.96
2023-03-05T02:39:05.836Z,1.52
2023-03-05T02:44:11.375Z,0.63
2023-03-05T02:49:15.830Z,-0.79
2023-03-05T02:54:22.290Z,0.43
2023-03-05T02:59:26.779Z,0.95
2023-03-05T03:04:31.279Z,0.40
2023-03-05T03:09:37.153Z,0.28
2023-03-05T03:14:43.772Z,0.58
2023-03-05T03:19:48.195Z,0.32
2023-03-05T03:24:53.926Z,0.64
2023-03-05T03:30:02.655Z,-0.23
2023-03-05T03:35:08.272Z,-0.97
2023-03-05T03:40:14.883Z,-0.61
2023-03-05T03:45:19.748Z,0.11
2023-03-05T03:50:25.151Z,-1.21
2023-03-05T03:55:30.871Z,-1.58
2023-03-05T04:00:35.261Z,-1.77
2023-03-05T04:05:39.516Z,-1.02
2023-03-05T04:10:45.443Z,-0.14
2023-03-05T04:15:50.481Z,1.72
2023-03-05T04:20:54.955Z,1.12
2023-03-05T04:26:00.680Z,1.30
2023-03-05T04:31:04.894Z,1.83
2023-03-05T04:36:10.112Z,2.09
2023-03-05T04:41:15.899Z,2.19
2023-03-05T04:46:20.134Z,2.31
2023-03-05T04:51:24.511Z,1.63
2023-03-05T04:56:30.275Z,2.01
2023-03-05T05:01:35.535Z,2.27
2023-03-05T05:06:39.946Z,2.19
2023-03-05T05:11:45.745Z,2.75
2023-03-05T05:16:50.071Z,2.62
2023-03-05T05:21:54.343Z,2.35
2023-03-05T05:27:00.150Z,2.35
2023-03-05T05:32:04.539Z,2.62
2023-03-05T05:37:09.062Z,3.27
2023-03-05T05:42:14.899Z,2.17
2023-03-05T05:47:19.655Z,2.74
2023-03-05T05:52:24.342Z,2.33
2023-03-05T05:57:30.088Z,2.21
2023-03-05T06:02:34.441Z,2.07
2023-03-05T06:07:38.887Z,2.05
2023-03-05T06:12:44.772Z,0.84
2023-03-05T06:17:49.400Z,1.96
2023-03-05T06:22:53.764Z,0.46
2023-03-05T06:27:59.580Z,0.95
2023-03-05T06:33:07.356Z,-0.16
2023-03-05T06:38:12.903Z,0.04
2023-03-05T06:43:18.995Z,0.00
2023-03-05T06:48:23.340Z,-0.41
2023-03-05T06:53:28.343Z,-0.28
2023-03-05T06:58:34.115Z,-0.56
2023-03-05T07:03:39.216Z,0.03
2023-03-05T07:08:46.803Z,-0.24
2023-03-05T07:14:00.360Z,-0.34
2023-03-05T07:19:14.693Z,0.20
2023-03-05T07:24:19.296Z,0.44
2023-03-05T07:29:25.323Z,1.50
2023-03-05T07:34:30.100Z,0.36
2023-03-05T07:39:34.710Z,0.27
2023-03-05T07:44:40.496Z,-0.17
2023-03-05T07:49:44.440Z,0.98
2023-03-05T07:54:48.712Z,0.31
2023-03-05T07:59:54.476Z,0.55
2023-03-05T08:04:58.646Z,0.32
2023-03-05T08:10:03.741Z,0.21
2023-03-05T08:15:10.579Z,0.49
2023-03-05T08:20:15.310Z,0.54
2023-03-05T08:25:19.707Z,0.20
2023-03-05T08:30:27.617Z,0.71
2023-03-05T08:35:32.378Z,0.58
2023-03-05T08:40:36.883Z,1.24
2023-03-05T08:45:42.748Z,1.32
2023-03-05T08:50:47.263Z,0.64
2023-03-05T08:55:56.198Z,0.58
2023-03-05T09:01:02.035Z,1.01
2023-03-05T09:06:07.753Z,1.14
2023-03-05T09:11:14.601Z,1.14
2023-03-05T09:16:21.224Z,1.04
2023-03-05T09:21:25.919Z,0.96
2023-03-05T09:26:30.593Z,1.09
2023-03-05T09:31:39.461Z,0.60
2023-03-05T09:36:49.265Z,0.70
2023-03-05T09:42:29.959Z,1.08
2023-03-05T09:48:20.505Z,0.79
2023-03-05T09:54:40.371Z,1.46
2023-03-05T10:00:33.172Z,1.29
2023-03-05T10:06:08.693Z,1.11
2023-03-05T10:11:55.151Z,1.12
2023-03-05T10:17:43.943Z,2.06
2023-03-05T10:23:24.871Z,1.30
2023-03-05T10:28:37.132Z,1.63
2023-03-05T10:33:48.895Z,1.39
2023-03-05T10:39:30.919Z,1.55
2023-03-05T10:44:38.935Z,1.52
2023-03-05T10:49:51.783Z,2.05
2023-03-05T10:54:57.696Z,2.48
2023-03-05T11:00:08.502Z,1.40
2023-03-05T11:05:38.816Z,1.40
2023-03-05T11:10:44.800Z,1.49
2023-03-05T11:16:06.324Z,2.00
2023-03-05T11:21:13.870Z,1.79
2023-03-05T11:26:24.399Z,2.19
2023-03-05T11:31:30.360Z,2.66
2023-03-05T11:36:34.987Z,2.56
2023-03-05T11:41:49.542Z,2.20
2023-03-05T11:46:57.721Z,2.51
2023-03-05T11:52:10.883Z,3.61
2023-03-05T11:57:34.669Z,2.55
2023-03-05T12:02:40.169Z,2.99
2023-03-05T12:07:48.417Z,3.20
2023-03-05T12:13:01.424Z,2.93
2023-03-05T12:18:22.105Z,2.82
2023-03-05T12:23:28.162Z,3.49
2023-03-05T12:28:57.407Z,3.05
2023-03-05T12:34:21.988Z,3.10
2023-03-05T12:46:36.844Z,3.05
2023-03-05T12:51:44.064Z,2.91
2023-03-05T12:56:49.275Z,3.00
2023-03-05T13:01:58.157Z,3.20
2023-03-05T13:07:19.215Z,2.54
2023-03-05T13:12:30.644Z,3.04
2023-03-05T13:17:44.510Z,3.31
2023-03-05T13:22:48.872Z,2.86
2023-03-05T13:27:53.394Z,2.91
2023-03-05T13:33:04.244Z,2.65
2023-03-05T13:38:22.663Z,2.49
2023-03-05T13:43:28.558Z,2.38
2023-03-05T13:48:34.824Z,2.47
2023-03-05T13:53:41.781Z,2.56
2023-03-05T13:58:49.826Z,3.54
2023-03-05T14:03:58.803Z,2.97
2023-03-05T14:09:07.827Z,2.21
2023-03-05T14:14:19.243Z,2.05
2023-03-05T14:19:37.149Z,1.06
2023-03-05T14:24:42.948Z,0.07
2023-03-05T14:29:47.873Z,0.32
2023-03-05T14:34:58.593Z,0.36
2023-03-05T14:40:06.557Z,0.56
2023-03-05T14:45:16.807Z,0.20
2023-03-05T14:50:25.343Z,0.07
2023-03-05T14:55:32.313Z,0.06
2023-03-05T15:00:36.890Z,0.32
2023-03-05T15:05:44.074Z,0.73
2023-03-05T15:10:48.619Z,0.47
2023-03-05T15:15:56.850Z,0.77
2023-03-05T15:21:10.149Z,0.44
2023-03-05T15:26:16.555Z,-0.15
2023-03-05T15:31:21.087Z,0.41
2023-03-05T15:36:27.135Z,0.39
2023-03-05T15:41:31.615Z,0.23
2023-03-05T15:46:36.267Z,0.36
2023-03-05T15:51:42.145Z,1.18
2023-03-05T15:56:46.583Z,1.37
2023-03-05T16:01:52.812Z,0.57
2023-03-05T16:07:03.216Z,0.59
2023-03-05T16:12:14.343Z,0.48
2023-03-05T16:17:20.890Z,0.79
2023-03-05T16:22:27.008Z,0.56
2023-03-05T16:27:31.892Z,0.63
2023-03-05T16:32:38.595Z,0.92
2023-03-05T16:37:51.176Z,1.26
2023-03-05T16:42:55.756Z,1.30
2023-03-05T16:48:00.349Z,1.09
2023-03-05T16:53:06.543Z,0.82
2023-03-05T16:58:11.101Z,0.31
2023-03-05T17:03:15.848Z,0.36
2023-03-05T17:08:22.240Z,0.79
2023-03-05T17:13:26.698Z,1.32
2023-03-05T17:18:31.372Z,0.82
2023-03-05T17:23:38.444Z,0.54
2023-03-05T17:28:43.434Z,0.53
2023-03-05T17:33:48.412Z,0.61
2023-03-05T17:38:55.264Z,0.26
2023-03-05T17:43:59.634Z,0.47
2023-03-05T17:49:04.456Z,1.25
2023-03-05T17:54:10.402Z,0.62
2023-03-05T17:59:15.626Z,0.49
2023-03-05T18:04:20.599Z,0.26
2023-03-05T18:09:26.516Z,0.58
2023-03-05T18:14:31.102Z,0.25
2023-03-05T18:19:35.654Z,0.50
2023-03-05T18:24:42.229Z,0.69
2023-03-05T18:29:46.908Z,0.27
2023-03-05T18:34:52.943Z,-0.17
2023-03-05T18:39:59.243Z,0.13
2023-03-05T18:45:04.704Z,0.09
2023-03-05T18:50:10.256Z,0.53
2023-03-05T18:55:17.208Z,1.00
2023-03-05T19:00:24.065Z,-0.49
2023-03-05T19:05:28.731Z,0.33
2023-03-05T19:10:35.244Z,0.27
2023-03-05T19:15:41.295Z,-0.15
2023-03-05T19:20:46.993Z,-0.13
2023-03-05T19:25:52.982Z,0.11
2023-03-05T19:30:57.569Z,0.93
2023-03-05T19:36:02.185Z,-0.10
2023-03-05T19:41:09.996Z,-0.01
2023-03-05T19:46:14.716Z,-0.54
2023-03-05T19:51:23.258Z,-0.14
2023-03-05T19:56:29.164Z,0.35
2023-03-05T20:01:33.574Z,0.13
2023-03-05T20:06:38.996Z,-0.59
2023-03-05T20:11:45.114Z,0.00
2023-03-05T20:16:49.492Z,-0.59
2023-03-05T20:21:54.285Z,-0.42
2023-03-05T20:27:00.741Z,0.14
2023-03-05T20:32:05.483Z,-0.24
2023-03-05T20:37:10.178Z,-0.59
2023-03-05T20:42:16.228Z,-0.75
2023-03-05T20:47:32.379Z,-0.53
2023-03-05T20:52:37.136Z,-0.42
2023-03-05T20:57:46.663Z,0.11
2023-03-05T21:02:51.854Z,-0.51
2023-03-05T21:07:56.359Z,-0.39
2023-03-05T21:13:02.303Z,-0.07
2023-03-05T21:18:06.683Z,-0.72
2023-03-05T21:23:11.693Z,-0.42
2023-03-05T21:28:18.741Z,-0.43
2023-03-05T21:33:26.814Z,-0.26
2023-03-05T21:38:34.104Z,-0.21
2023-03-05T21:43:40.101Z,0.15
2023-03-05T21:48:44.618Z,0.20
2023-03-05T21:53:49.357Z,0.01
2023-03-05T21:58:55.589Z,-0.37
2023-03-05T22:04:00.032Z,-0.03
2023-03-05T22:09:04.416Z,0.41
2023-03-05T22:14:10.363Z,0.50
2023-03-05T22:19:15.978Z,0.22
2023-03-05T22:24:21.878Z,0.14
2023-03-05T22:29:27.434Z,0.37
2023-03-05T22:34:31.706Z,-0.35
2023-03-05T22:39:36.173Z,0.17
2023-03-05T22:44:41.873Z,-0.56
2023-03-05T22:49:46.961Z,-0.05
2023-03-05T22:54:51.346Z,-0.30
2023-03-05T22:59:57.042Z,-0.43
2023-03-05T23:05:01.672Z,-0.47
2023-03-05T23:10:08.684Z,-0.59
2023-03-05T23:15:16.526Z,-0.42
2023-03-05T23:20:22.726Z,-0.59
2023-03-05T23:25:30.103Z,-0.29
2023-03-05T23:30:39.499Z,-0.65
2023-03-05T23:35:50.306Z,0.21
2023-03-05T23:40:56.198Z,-0.34
2023-03-05T23:46:02.056Z,0.17
2023-03-05T23:51:10.385Z,-0.14
2023-03-05T23:56:14.675Z,0.06
